createdAt,value
2023-03-29T00:01:36.056Z,75.80
2023-03-29T00:04:39.165Z,75.76
2023-03-29T00:07:45.723Z,76.08
2023-03-29T00:10:50.040Z,76.19
2023-03-29T00:13:52.258Z,76.49
2023-03-29T00:17:03.102Z,76.61
2023-03-29T00:20:10.418Z,76.75
2023-03-29T00:23:07.578Z,76.86
2023-03-29T00:26:18.432Z,76.79
2023-03-29T00:29:22.964Z,76.95
2023-03-29T00:32:34.117Z,77.35
2023-03-29T00:35:45.187Z,77.44
2023-03-29T00:38:39.205Z,77.49
2023-03-29T00:41:51.056Z,77.74
2023-03-29T00:44:59.402Z,77.76
2023-03-29T00:48:12.408Z,77.72
2023-03-29T00:51:24.551Z,77.63
2023-03-29T00:54:38.414Z,77.70
2023-03-29T00:57:49.714Z,77.76
2023-03-29T01:00:55.776Z,77.73
2023-03-29T01:03:51.094Z,77.95
2023-03-29T01:06:55.666Z,77.92
2023-03-29T01:10:06.873Z,77.71
2023-03-29T01:13:22.092Z,77.67
2023-03-29T01:16:27.761Z,77.74
2023-03-29T01:19:42.231Z,77.47
2023-03-29T01:23:10.189Z,77.55
2023-03-29T01:26:25.260Z,77.57
2023-03-29T01:29:30.272Z,77.36
2023-03-29T01:32:45.029Z,77.27
2023-03-29T01:36:00.369Z,77.30
2023-03-29T01:38:52.454Z,77.38
2023-03-29T01:42:09.638Z,77.12
2023-03-29T01:45:05.245Z,77.06
2023-03-29T01:47:59.307Z,76.87
2023-03-29T01:50:56.562Z,76.63
2023-03-29T01:54:07.741Z,76.59
2023-03-29T01:57:07.235Z,76.32
2023-03-29T01:59:59.231Z,76.07
2023-03-29T02:02:50.320Z,75.91
2023-03-29T02:05:52.016Z,75.68
2023-03-29T02:08:52.730Z,75.63
2023-03-29T02:11:53.267Z,75.56
2023-03-29T02:14:45.884Z,75.51
2023-03-29T02:17:48.057Z,75.27
2023-03-29T02:20:44.099Z,74.93
2023-03-29T02:23:39.603Z,74.69
2023-03-29T02:26:32.656Z,74.47
2023-03-29T02:29:28.198Z,74.10
2023-03-29T02:32:33.868Z,73.94
2023-03-29T02:35:35.237Z,73.83
2023-03-29T02:38:28.815Z,73.41
2023-03-29T02:41:24.092Z,72.90
2023-03-29T02:44:16.410Z,73.02
2023-03-29T02:47:10.188Z,73.30
2023-03-29T02:50:06.804Z,73.62
2023-03-29T02:53:19.090Z,73.48
2023-03-29T02:56:12.341Z,73.22
2023-03-29T02:59:05.337Z,72.78
2023-03-29T03:01:58.574Z,72.46
2023-03-29T03:04:50.238Z,72.21
2023-03-29T03:07:44.248Z,72.05
2023-03-29T03:10:37.572Z,72.07
2023-03-29T03:13:27.797Z,71.86
2023-03-29T03:16:20.682Z,71.61
2023-03-29T03:19:29.856Z,71.75
2023-03-29T03:31:14.222Z,71.55
2023-03-29T03:34:53.450Z,71.63
2023-03-29T03:38:44.579Z,71.75
2023-03-29T03:41:59.307Z,71.99
2023-03-29T03:44:50.512Z,72.02
2023-03-29T03:48:16.420Z,72.26
2023-03-29T03:51:13.840Z,72.34
2023-03-29T03:54:24.511Z,72.51
2023-03-29T03:57:43.889Z,72.42
2023-03-29T04:00:37.450Z,72.40
2023-03-29T04:03:37.839Z,72.36
2023-03-29T04:06:30.743Z,72.44
2023-03-29T04:10:00.086Z,72.58
2023-03-29T04:13:12.185Z,72.62
2023-03-29T04:16:27.858Z,72.78
2023-03-29T04:19:21.996Z,72.88
2023-03-29T04:22:23.412Z,72.92
2023-03-29T04:25:23.676Z,72.87
2023-03-29T04:28:22.805Z,72.92
2023-03-29T04:31:20.327Z,73.00
2023-03-29T04:34:19.843Z,72.86
2023-03-29T04:37:22.335Z,72.83
2023-03-29T04:40:15.445Z,72.92
2023-03-29T04:43:16.220Z,73.13
2023-03-29T04:46:16.244Z,73.42
2023-03-29T04:49:29.431Z,73.86
2023-03-29T04:52:20.904Z,74.41
2023-03-29T04:55:13.209Z,74.99
2023-03-29T04:58:30.710Z,75.92
2023-03-29T05:01:26.048Z,76.22
2023-03-29T05:04:20.973Z,76.74
2023-03-29T05:07:27.159Z,77.19
2023-03-29T05:10:17.785Z,77.67
2023-03-29T05:13:08.204Z,78.08
2023-03-29T05:16:00.788Z,78.29
2023-03-29T05:18:57.018Z,78.66
2023-03-29T05:21:47.971Z,79.08
2023-03-29T05:24:42.466Z,79.34
2023-03-29T05:27:45.989Z,79.46
2023-03-29T05:30:36.436Z,79.78
2023-03-29T05:33:33.868Z,79.90
2023-03-29T05:36:24.931Z,80.15
2023-03-29T05:39:16.755Z,80.48
2023-03-29T05:42:13.720Z,80.53
2023-03-29T05:45:23.086Z,80.99
2023-03-29T05:48:21.813Z,81.30
2023-03-29T05:51:14.966Z,81.61
2023-03-29T05:54:17.865Z,81.63
2023-03-29T05:57:28.456Z,81.51
2023-03-29T06:00:24.497Z,81.10
2023-03-29T06:03:25.665Z,80.54
2023-03-29T06:06:27.183Z,80.36
2023-03-29T06:09:19.622Z,80.01
2023-03-29T06:12:26.932Z,79.71
2023-03-29T06:15:23.431Z,79.49
2023-03-29T06:18:32.445Z,79.35
2023-03-29T06:21:23.541Z,79.08
2023-03-29T06:24:15.839Z,78.86
2023-03-29T06:27:13.606Z,78.70
2023-03-29T06:30:07.786Z,78.28
2023-03-29T06:33:01.997Z,78.05
2023-03-29T06:36:12.198Z,78.01
2023-03-29T06:39:08.818Z,77.91
2023-03-29T06:42:28.686Z,77.73
2023-03-29T06:45:45.357Z,77.72
2023-03-29T06:48:43.153Z,77.73
2023-03-29T06:51:35.426Z,77.89
2023-03-29T06:54:25.956Z,77.87
2023-03-29T06:57:22.930Z,77.91
2023-03-29T07:00:22.242Z,77.85
2023-03-29T07:03:54.944Z,77.94
2023-03-29T07:07:01.857Z,77.77
2023-03-29T07:09:55.770Z,77.73
2023-03-29T07:13:15.763Z,77.64
2023-03-29T07:16:07.738Z,77.79
2023-03-29T07:19:09.372Z,77.99
2023-03-29T07:22:10.160Z,78.25
2023-03-29T07:25:13.607Z,78.39
2023-03-29T07:28:03.846Z,78.84
2023-03-29T07:30:57.427Z,78.91
2023-03-29T07:33:52.639Z,78.81
2023-03-29T07:36:43.855Z,78.77
2023-03-29T07:39:34.022Z,78.75
2023-03-29T07:42:58.941Z,78.53
2023-03-29T07:45:52.114Z,78.51
2023-03-29T07:48:42.945Z,78.32
2023-03-29T07:51:37.268Z,78.34
2023-03-29T07:54:32.913Z,78.54
2023-03-29T07:57:44.739Z,78.77
2023-03-29T08:00:34.935Z,78.94
2023-03-29T08:03:43.506Z,79.30
2023-03-29T08:06:37.532Z,79.57
2023-03-29T08:09:31.231Z,79.58
2023-03-29T08:12:25.037Z,79.60
2023-03-29T08:15:19.209Z,79.66
2023-03-29T08:18:09.533Z,79.65
2023-03-29T08:21:00.582Z,79.44
2023-03-29T08:23:51.311Z,79.19
2023-03-29T08:26:54.135Z,79.14
2023-03-29T08:29:44.557Z,79.17
2023-03-29T08:32:38.293Z,79.28
2023-03-29T08:35:29.069Z,79.56
2023-03-29T08:38:31.713Z,79.67
2023-03-29T08:41:37.988Z,79.88
2023-03-29T08:44:38.342Z,79.83
2023-03-29T08:47:40.208Z,79.96
2023-03-29T08:50:38.042Z,79.81
2023-03-29T08:53:30.642Z,79.89
2023-03-29T08:56:29.543Z,79.70
2023-03-29T08:59:53.868Z,79.60
2023-03-29T09:02:47.207Z,79.35
2023-03-29T09:05:41.473Z,79.17
2023-03-29T09:08:50.557Z,79.26
2023-03-29T09:11:50.845Z,79.47
2023-03-29T09:14:46.173Z,79.58
2023-03-29T09:17:49.907Z,79.66
2023-03-29T09:20:46.483Z,79.80
2023-03-29T09:23:48.648Z,79.78
2023-03-29T09:27:06.303Z,79.81
2023-03-29T09:30:26.171Z,80.02
2023-03-29T09:33:42.974Z,80.48
2023-03-29T09:36:42.242Z,80.93
2023-03-29T09:39:32.497Z,81.32
2023-03-29T09:42:31.225Z,81.80
2023-03-29T09:45:21.746Z,82.29
2023-03-29T09:48:15.047Z,82.80
2023-03-29T09:51:10.348Z,83.28
2023-03-29T09:54:02.159Z,84.24
2023-03-29T09:57:17.916Z,84.75
2023-03-29T10:00:10.877Z,85.15
2023-03-29T10:03:04.352Z,85.61
2023-03-29T10:06:17.854Z,86.06
2023-03-29T10:09:17.042Z,86.60
2023-03-29T10:12:08.471Z,86.77
2023-03-29T10:15:01.800Z,86.71
2023-03-29T10:17:58.655Z,86.71
2023-03-29T10:20:49.086Z,86.93
2023-03-29T10:23:39.453Z,87.12
2023-03-29T10:26:32.944Z,87.11
2023-03-29T10:29:24.006Z,86.63
2023-03-29T10:32:18.499Z,86.52
2023-03-29T10:35:10.889Z,86.90
2023-03-29T10:38:04.212Z,86.61
2023-03-29T10:40:55.058Z,86.64
2023-03-29T10:43:49.429Z,86.63
2023-03-29T10:46:44.129Z,86.42
2023-03-29T10:49:40.836Z,86.44
2023-03-29T10:52:31.831Z,86.57
2023-03-29T10:55:23.348Z,86.63
2023-03-29T10:58:25.838Z,86.87
2023-03-29T11:01:19.028Z,87.36
2023-03-29T11:04:17.545Z,87.21
2023-03-29T11:07:22.748Z,86.73
2023-03-29T11:10:26.365Z,86.37
2023-03-29T11:13:23.630Z,85.98
2023-03-29T11:16:18.505Z,85.77
2023-03-29T11:19:15.429Z,85.12
2023-03-29T11:22:10.005Z,84.56
2023-03-29T11:25:05.908Z,83.68
2023-03-29T11:28:00.537Z,82.70
2023-03-29T11:30:56.354Z,81.54
2023-03-29T11:33:55.854Z,81.14
2023-03-29T11:36:53.905Z,81.22
2023-03-29T11:39:50.830Z,81.09
2023-03-29T11:42:44.089Z,79.87
2023-03-29T11:45:36.894Z,77.08
2023-03-29T11:48:29.872Z,72.20
2023-03-29T11:51:23.698Z,71.30
2023-03-29T11:54:19.278Z,70.17
2023-03-29T11:57:14.111Z,67.25
2023-03-29T12:00:06.864Z,63.36
2023-03-29T12:03:08.482Z,59.84
2023-03-29T12:06:02.673Z,58.65
2023-03-29T12:08:56.268Z,53.97
2023-03-29T12:11:50.182Z,54.14
2023-03-29T12:14:48.239Z,53.28
2023-03-29T12:17:40.968Z,52.70
2023-03-29T12:20:33.149Z,53.43
2023-03-29T12:23:26.407Z,52.82
2023-03-29T12:26:27.359Z,48.93
2023-03-29T12:29:29.717Z,45.68
2023-03-29T12:32:32.086Z,42.77
2023-03-29T12:35:37.879Z,38.97
2023-03-29T12:38:54.578Z,36.11
2023-03-29T12:42:15.584Z,35.50
2023-03-29T12:45:32.105Z,36.30
2023-03-29T12:48:25.119Z,35.34
2023-03-29T12:51:16.743Z,34.99
2023-03-29T12:54:08.814Z,32.85
2023-03-29T12:57:21.501Z,31.57
2023-03-29T13:00:21.286Z,31.90
2023-03-29T13:03:29.527Z,31.64
2023-03-29T13:06:33.410Z,30.68
2023-03-29T13:09:30.065Z,30.93
2023-03-29T13:12:33.485Z,30.61
2023-03-29T13:15:26.404Z,31.12
2023-03-29T13:18:42.329Z,31.71
2023-03-29T13:21:41.625Z,33.17
2023-03-29T13:24:52.574Z,33.95
2023-03-29T13:27:49.129Z,33.38
2023-03-29T13:30:52.403Z,34.06
2023-03-29T13:33:55.498Z,34.02
2023-03-29T13:36:54.800Z,33.68
2023-03-29T13:39:51.248Z,34.14
2023-03-29T13:42:44.484Z,34.49
2023-03-29T13:45:37.232Z,33.79
2023-03-29T13:48:28.628Z,33.52
2023-03-29T13:51:42.591Z,34.42
2023-03-29T13:54:35.037Z,34.85
2023-03-29T13:57:31.876Z,34.43
2023-03-29T14:00:24.099Z,34.59
2023-03-29T14:03:15.717Z,35.34
2023-03-29T14:06:08.311Z,36.07
2023-03-29T14:09:00.553Z,36.53
2023-03-29T14:11:50.777Z,36.49
2023-03-29T14:14:48.373Z,36.77
2023-03-29T14:17:48.872Z,35.83
2023-03-29T14:20:39.331Z,35.68
2023-03-29T14:23:31.523Z,37.08
2023-03-29T14:26:22.716Z,38.00
2023-03-29T14:29:12.950Z,39.26
2023-03-29T14:32:11.622Z,40.16
2023-03-29T14:35:01.959Z,40.42
2023-03-29T14:37:52.179Z,40.30
2023-03-29T14:40:45.055Z,40.56
2023-03-29T14:43:35.214Z,40.75
2023-03-29T14:46:25.785Z,40.60
2023-03-29T14:49:17.009Z,40.06
2023-03-29T14:52:07.357Z,40.17
2023-03-29T14:54:59.655Z,40.37
2023-03-29T14:57:54.723Z,40.85
2023-03-29T15:00:44.912Z,40.66
2023-03-29T15:03:43.770Z,40.91
2023-03-29T15:06:38.308Z,41.27
2023-03-29T15:09:30.493Z,40.74
2023-03-29T15:12:20.872Z,41.07
2023-03-29T15:15:13.415Z,41.18
2023-03-29T15:18:04.171Z,41.64
2023-03-29T15:20:55.724Z,41.48
2023-03-29T15:23:52.292Z,42.12
2023-03-29T15:26:43.080Z,42.78
2023-03-29T15:29:37.160Z,43.13
2023-03-29T15:32:34.964Z,43.88
2023-03-29T15:35:26.004Z,44.33
2023-03-29T15:38:15.979Z,44.13
2023-03-29T15:41:06.597Z,44.26
2023-03-29T15:43:57.658Z,44.33
2023-03-29T15:46:47.740Z,44.10
2023-03-29T15:49:37.864Z,44.42
2023-03-29T15:52:28.139Z,45.37
2023-03-29T15:55:18.646Z,45.81
2023-03-29T15:58:09.127Z,46.21
2023-03-29T16:01:03.619Z,46.23
2023-03-29T16:03:53.940Z,46.81
2023-03-29T16:06:44.532Z,47.34
2023-03-29T16:09:34.565Z,47.46
2023-03-29T16:12:24.679Z,47.49
2023-03-29T16:15:18.114Z,47.41
2023-03-29T16:18:08.490Z,47.57
2023-03-29T16:20:59.530Z,47.91
2023-03-29T16:23:49.747Z,48.30
2023-03-29T16:26:39.943Z,48.76
2023-03-29T16:29:30.214Z,49.55
2023-03-29T16:32:20.674Z,50.11
2023-03-29T16:35:14.646Z,50.86
2023-03-29T16:38:04.816Z,51.05
2023-03-29T16:40:56.362Z,51.12
2023-03-29T16:43:48.232Z,51.52
2023-03-29T16:46:38.508Z,51.72
2023-03-29T16:49:29.305Z,51.71
2023-03-29T16:52:19.340Z,51.76
2023-03-29T16:55:12.251Z,52.02
2023-03-29T16:58:02.729Z,52.51
2023-03-29T17:00:56.326Z,52.98
2023-03-29T17:03:46.594Z,53.26
2023-03-29T17:06:36.694Z,53.67
2023-03-29T17:09:29.307Z,54.05
2023-03-29T17:12:21.313Z,54.23
2023-03-29T17:15:12.202Z,54.39
2023-03-29T17:18:02.418Z,54.50
2023-03-29T17:20:53.372Z,54.55
2023-03-29T17:23:43.434Z,54.65
2023-03-29T17:26:33.534Z,54.85
2023-03-29T17:29:23.635Z,54.54
2023-03-29T17:32:13.823Z,54.46
2023-03-29T17:35:04.971Z,54.17
2023-03-29T17:37:56.036Z,54.13
2023-03-29T17:40:52.488Z,54.19
2023-03-29T17:43:43.232Z,54.45
2023-03-29T17:46:33.402Z,54.37
2023-03-29T17:49:25.114Z,54.54
2023-03-29T17:52:15.737Z,54.61
2023-03-29T17:55:06.958Z,54.92
2023-03-29T17:57:57.094Z,55.26
2023-03-29T18:00:47.154Z,55.46
2023-03-29T18:03:37.506Z,55.67
2023-03-29T18:06:28.133Z,55.95
2023-03-29T18:09:18.194Z,56.13
2023-03-29T18:12:08.507Z,56.48
2023-03-29T18:14:59.522Z,56.85
2023-03-29T18:17:50.577Z,57.07
2023-03-29T18:20:40.893Z,57.35
2023-03-29T18:23:30.984Z,57.53
2023-03-29T18:26:23.059Z,57.76
2023-03-29T18:29:13.371Z,58.29
2023-03-29T18:32:03.713Z,58.75
2023-03-29T18:34:53.864Z,59.05
2023-03-29T18:37:44.021Z,59.25
2023-03-29T18:40:34.832Z,59.45
2023-03-29T18:43:24.864Z,59.82
2023-03-29T18:46:15.218Z,60.14
2023-03-29T18:49:05.310Z,60.20
2023-03-29T18:51:55.773Z,60.49
2023-03-29T18:54:45.943Z,60.83
2023-03-29T18:57:36.207Z,60.85
2023-03-29T19:00:36.010Z,61.02
2023-03-29T19:03:27.300Z,61.15
2023-03-29T19:06:17.989Z,61.15
2023-03-29T19:09:08.528Z,61.34
2023-03-29T19:11:58.676Z,61.54
2023-03-29T19:14:48.852Z,61.75
2023-03-29T19:17:39.006Z,61.87
2023-03-29T19:20:30.108Z,61.80
2023-03-29T19:23:20.243Z,62.11
2023-03-29T19:26:10.861Z,62.18
2023-03-29T19:29:01.123Z,62.42
2023-03-29T19:31:52.068Z,62.62
2023-03-29T19:34:42.170Z,62.78
2023-03-29T19:37:35.759Z,62.86
2023-03-29T19:40:27.514Z,63.24
2023-03-29T19:43:18.495Z,63.27
2023-03-29T19:46:10.617Z,63.41
2023-03-29T19:49:02.602Z,63.57
2023-03-29T19:51:55.668Z,63.69
2023-03-29T19:54:46.203Z,63.85
2023-03-29T19:57:39.354Z,63.88
2023-03-29T20:00:29.653Z,64.14
2023-03-29T20:03:21.938Z,64.17
2023-03-29T20:06:13.141Z,64.21
2023-03-29T20:09:05.061Z,64.01
2023-03-29T20:11:57.777Z,64.10
2023-03-29T20:14:51.213Z,64.20
2023-03-29T20:17:41.789Z,64.18
2023-03-29T20:20:32.277Z,64.23
2023-03-29T20:23:22.505Z,64.43
2023-03-29T20:26:13.191Z,64.42
2023-03-29T20:29:03.649Z,64.52
2023-03-29T20:31:53.853Z,64.65
2023-03-29T20:34:45.131Z,64.77
2023-03-29T20:37:35.491Z,64.74
2023-03-29T20:40:25.688Z,64.95
2023-03-29T20:43:19.161Z,65.02
2023-03-29T20:46:14.844Z,65.18
2023-03-29T20:49:05.848Z,65.17
2023-03-29T20:51:59.555Z,65.22
2023-03-29T20:54:49.993Z,65.53
2023-03-29T20:57:40.761Z,65.76
2023-03-29T21:00:35.514Z,66.01
2023-03-29T21:03:25.985Z,66.04
2023-03-29T21:06:16.292Z,66.14
2023-03-29T21:09:06.578Z,66.26
2023-03-29T21:11:59.283Z,66.33
2023-03-29T21:14:49.623Z,66.24
2023-03-29T21:17:39.991Z,66.20
2023-03-29T21:20:34.824Z,66.21
2023-03-29T21:23:25.276Z,66.20
2023-03-29T21:26:15.756Z,66.40
2023-03-29T21:29:06.004Z,66.41
2023-03-29T21:31:56.452Z,66.45
2023-03-29T21:34:46.982Z,66.52
2023-03-29T21:37:37.561Z,66.61
2023-03-29T21:40:34.424Z,66.47
2023-03-29T21:43:25.072Z,66.60
2023-03-29T21:46:15.724Z,66.62
2023-03-29T21:49:26.350Z,66.78
2023-03-29T21:52:19.229Z,66.94
2023-03-29T21:55:14.859Z,67.13
2023-03-29T21:58:11.660Z,67.15
2023-03-29T22:01:03.870Z,67.22
2023-03-29T22:03:54.174Z,67.39
2023-03-29T22:06:44.947Z,67.61
2023-03-29T22:09:38.180Z,67.77
2023-03-29T22:12:32.462Z,67.93
2023-03-29T22:15:35.591Z,68.01
2023-03-29T22:18:34.204Z,68.07
2023-03-29T22:21:25.486Z,68.06
2023-03-29T22:28:05.394Z,67.91
2023-03-29T22:34:22.393Z,68.05
2023-03-29T22:37:27.277Z,68.15
2023-03-29T22:40:51.814Z,68.22
2023-03-29T22:44:25.376Z,68.44
2023-03-29T22:51:20.346Z,68.86
2023-03-29T22:54:42.932Z,69.27
2023-03-29T22:58:44.226Z,69.70
2023-03-29T23:01:31.802Z,70.13
2023-03-29T23:05:10.910Z,70.34
2023-03-29T23:09:00.573Z,70.78
2023-03-29T23:12:04.145Z,71.35
2023-03-29T23:14:56.005Z,71.65
2023-03-29T23:17:46.172Z,71.98
2023-03-29T23:20:36.411Z,72.71
2023-03-29T23:23:29.302Z,73.63
2023-03-29T23:26:19.432Z,74.30
2023-03-29T23:29:09.647Z,74.85
2023-03-29T23:31:59.849Z,75.48
2023-03-29T23:34:50.274Z,75.88
2023-03-29T23:37:40.702Z,76.31
2023-03-29T23:40:39.711Z,76.82
2023-03-29T23:43:36.039Z,77.05
2023-03-29T23:46:26.725Z,77.54
2023-03-29T23:49:22.898Z,78.04
2023-03-29T23:52:13.368Z,78.37
2023-03-29T23:55:04.721Z,78.78
2023-03-29T23:57:58.139Z,79.27
